• Join FlightAware (Why Join?)
  • Login
  • US Flag 
11:44AM EDT


 

Airport Tracker/Info


-or-


 

Live Flight TrackerFlight Track Log ✈ ASQ5874 ✈ 28-Sep-2013 ✈ KORD - KICT

Flight Track Log - Related Links

Times and Time Zones

All times are in EDT time to prevent confusion due to time zone crossing. See the ASQ5874 flight status page for this flight to view local times or setup timezone preferences in your user account.

Time Position Orientation Groundspeed Altitude Reporting Facility
EDT Latitude Longitude Course Direction KTS MPH feet Rate Location/Type
05:09PM 41.9500 -87.9167 257° West 162 186 1,600  Level Chicago TRACON
05:10PM 41.9167 -87.9667 228° Southwest 194 223 3,900 2,100 Climbing Chicago TRACON
05:11PM 41.9167 -88.0500 270° West 220 253 5,900 1,740 Climbing Chicago TRACON
05:12PM 41.8528 -88.2378 254° West  Level Estimated
05:13PM 41.8323 -88.3591 257° West  Level FlightAware Approximate
05:13PM 41.9378 -88.1794 282° West 248 285 8,600  Level Chicago Center
05:14PM 41.8116 -88.4803 257° West  Level FlightAware Approximate
05:14PM 41.9289 -88.2744 263° West 259 298 10,400  Level Chicago Center
05:15PM 41.9042 -88.3728 251° West 276 318 11,300 900 Climbing Chicago Center
05:16PM 41.8711 -88.5056 252° West 313 360 12,300 900 Climbing Chicago Center
05:17PM 41.8428 -88.6236 252° West 332 382 13,200 1,140 Climbing Chicago Center
05:18PM 41.8131 -88.7422 251° West 339 390 14,700 1,260 Climbing Chicago Center
05:19PM 41.7833 -88.8592 251° West 336 387 15,900 1,020 Climbing Chicago Center
05:20PM 41.7536 -88.9778 251° West 338 389 16,900 1,020 Climbing Chicago Center
05:21PM 41.7239 -89.0969 252° West 339 390 18,000 900 Climbing Chicago Center
05:22PM 41.6889 -89.2392 252° West 339 390 18,800 720 Climbing Chicago Center
05:23PM 41.6578 -89.3594 251° West 343 395 19,500 720 Climbing Chicago Center
05:24PM 41.6256 -89.4822 251° West 351 404 20,300 780 Climbing Chicago Center
05:25PM 41.5928 -89.6094 251° West 356 410 21,100 840 Climbing Chicago Center
05:26PM 41.5617 -89.7339 252° West 353 406 22,100 960 Climbing Chicago Center
05:27PM 41.5283 -89.8567 250° West 353 406 23,100 960 Climbing Chicago Center
05:28PM 41.4969 -89.9797 251° West 352 405 24,100 1,020 Climbing Chicago Center
05:29PM 41.4592 -90.1239 251° West 346 398 25,200 960 Climbing Chicago Center
05:30PM 41.4289 -90.2397 251° West 335 386 26,200 900 Climbing Chicago Center
05:31PM 41.3964 -90.3550 249° West 334 384 27,100 900 Climbing Chicago Center
05:32PM 41.3486 -90.4572 238° Southwest 326 375 28,100 960 Climbing Chicago Center
05:33PM 41.2992 -90.5608 238° Southwest 330 380 29,100 960 Climbing Chicago Center
05:34PM 41.2494 -90.6661 238° Southwest 336 387 30,100 900 Climbing Chicago Center
05:35PM 41.2003 -90.7686 238° Southwest 333 383 31,000 1,020 Climbing Chicago Center
05:36PM 41.1417 -90.8903 237° Southwest 328 377 32,200 1,020 Climbing Chicago Center
05:37PM 41.0931 -90.9919 238° Southwest 327 376 33,200 960 Climbing Chicago Center
05:38PM 41.0453 -91.0911 237° Southwest 323 372 34,200 900 Climbing Chicago Center
05:39PM 40.9961 -91.1914 237° Southwest 324 373 35,100 840 Climbing Chicago Center
05:40PM 40.9486 -91.2889 237° Southwest 318 366 36,000 420 Climbing Chicago Center
05:41PM 40.8969 -91.3961 238° Southwest 330 380 36,000  Level Chicago Center
05:42PM 40.8436 -91.5061 237° Southwest 352 405 36,000  Level Chicago Center
05:43PM 40.7875 -91.6200 237° Southwest 370 426 36,000  Level Chicago Center
05:45PM 40.7214 -91.7533 237° Southwest 366 421 36,000  Level Chicago Center
05:46PM 40.6683 -91.8614 237° Southwest 356 410 36,000  Level Chicago Center
05:47PM 40.6142 -91.9692 237° Southwest 356 410 36,000  Level Chicago Center
05:47PM 40.5819 -92.0331 236° Southwest 355 409 36,000  Level Kansas City Center
05:48PM 40.5289 -92.1411 237° Southwest 354 407 36,000  Level Kansas City Center
05:49PM 40.4744 -92.2508 237° Southwest 358 412 36,000  Level Kansas City Center
05:50PM 40.4169 -92.3642 236° Southwest 365 420 36,000  Level Kansas City Center
05:51PM 40.3600 -92.4764 236° Southwest 368 423 36,000  Level Kansas City Center
05:52PM 40.2978 -92.5953 236° Southwest 374 430 36,000  Level Kansas City Center
05:53PM 40.2447 -92.7053 238° Southwest 374 430 36,000  Level Kansas City Center
05:54PM 40.1806 -92.8275 236° Southwest 367 422 36,000  Level Kansas City Center
05:55PM 40.1267 -92.9325 236° Southwest 363 418 36,000  Level Kansas City Center
05:56PM 40.0647 -93.0539 236° Southwest 361 415 36,000  Level Kansas City Center
05:57PM 40.0067 -93.1647 236° Southwest 360 414 36,000  Level Kansas City Center
05:58PM 39.9517 -93.2719 236° Southwest 359 413 36,000  Level Kansas City Center
05:59PM 39.8978 -93.3794 237° Southwest 358 412 36,000  Level Kansas City Center
06:00PM 39.8422 -93.4864 236° Southwest 359 413 36,000  Level Kansas City Center
06:01PM 39.7861 -93.5914 235° Southwest 358 412 36,000  Level Kansas City Center
06:02PM 39.7300 -93.6967 235° Southwest 357 411 36,000  Level Kansas City Center
06:03PM 39.6642 -93.8256 236° Southwest 360 414 36,000  Level Kansas City Center
06:05PM 39.6106 -93.9261 235° Southwest 356 410 36,000  Level Kansas City Center
06:06PM 39.5569 -94.0281 236° Southwest 357 411 36,000  Level Kansas City Center
06:07PM 39.4947 -94.1458 236° Southwest 355 409 36,000  Level Kansas City Center
06:08PM 39.4408 -94.2475 236° Southwest 357 411 36,000  Level Kansas City Center
06:09PM 39.3778 -94.3653 235° Southwest 356 410 36,000  Level Kansas City Center
06:10PM 39.3236 -94.4650 235° Southwest 355 409 36,000 -120 Level Kansas City Center
06:11PM 39.2692 -94.5653 235° Southwest 356 410 35,800 -780 Descending Kansas City Center
06:12PM 39.2044 -94.6850 235° Southwest 363 418 34,500 -1,500 Descending Kansas City Center
06:13PM 39.1486 -94.7869 235° Southwest 366 421 32,800 -1,920 Descending Kansas City Center
06:14PM 39.0825 -94.9094 235° Southwest 370 426 30,600 -2,100 Descending Kansas City Center
06:15PM 39.0264 -95.0136 235° Southwest 366 421 28,600 -1,860 Descending Kansas City Center
06:16PM 38.9692 -95.1175 235° Southwest 368 423 26,900 -1,680 Descending Kansas City Center
06:17PM 38.9028 -95.2383 235° Southwest 368 423 25,200 -1,380 Descending Kansas City Center
06:18PM 38.8436 -95.3450 235° Southwest 380 437 24,100 -600 Descending Kansas City Center
06:19PM 38.7853 -95.4508 235° Southwest 378 435 24,000 -60 Descending Kansas City Center
06:20PM 38.7161 -95.5736 234° Southwest 378 435 24,000 -360 Level Kansas City Center
06:21PM 38.6517 -95.6875 234° Southwest 386 444 23,300 -1,020 Descending Kansas City Center
06:22PM 38.5958 -95.7892 235° Southwest 390 449 22,000 -1,560 Descending Kansas City Center
06:23PM 38.5292 -95.9150 236° Southwest 383 441 20,200 -1,380 Descending Kansas City Center
06:24PM 38.4706 -96.0186 234° Southwest 376 433 19,200 -1,080 Descending Kansas City Center
06:25PM 38.3992 -96.1361 232° Southwest 376 433 18,000 -1,080 Descending Kansas City Center
06:26PM 38.3400 -96.2411 234° Southwest 379 436 17,100 -960 Descending Kansas City Center
06:27PM 38.2811 -96.3431 234° Southwest 376 433 16,100 -540 Descending Kansas City Center
06:28PM 38.2108 -96.4647 234° Southwest 370 426 16,000 -60 Descending Kansas City Center
06:29PM 38.1536 -96.5669 235° Southwest 384 442 16,000 -120 Level Kansas City Center
06:29PM 38.1331 -96.6006 232° Southwest 380 437 15,900 -1,020 Descending Kansas City Center
06:30PM 38.0906 -96.6772 235° Southwest 384 442 15,000 -1,560 Descending Kansas City Center
06:31PM 38.0294 -96.7836 234° Southwest 375 432 13,100 -1,740 Descending Kansas City Center
06:32PM 37.9725 -96.8797 233° Southwest 324 373 11,800 -1,320 Descending Kansas City Center
06:32PM 37.9731 -96.8789 50° Northeast 342 394 11,800 -1,620 Level Kansas City Center
06:33PM 37.9261 -96.9617 234° Southwest 278 320 10,200 -1,980 Descending Kansas City Center
06:33PM 37.9164 -96.9778 233° Southwest 292 336 9,800 -1,980 Descending Kansas City Center
06:34PM 37.8831 -97.0347 233° Southwest 275 316 8,400 -1,980 Descending Kansas City Center
06:34PM 37.8706 -97.0569 235° Southwest 281 323 7,800 -1,920 Descending Kansas City Center
06:35PM 37.8386 -97.1136 234° Southwest 277 319 6,500 -1,560 Descending Kansas City Center
06:35PM 37.8250 -97.1336 229° Southwest 274 315 6,200 -840 Descending Kansas City Center
06:36PM 37.7717 -97.1908 220° Southwest 252 290 5,400 -1,200 Descending Kansas City Center
06:37PM 37.7183 -97.2358 214° Southwest 260 299 4,100 -1,500 Descending Kansas City Center
06:37PM 37.7097 -97.2425 211° Southwest 261 300 3,900 -840 Descending Kansas City Center
06:38PM 37.6581 -97.2850 213° Southwest 255 293 3,300 -720 Descending Kansas City Center
06:38PM 37.6511 -97.2919 218° Southwest 259 298 3,200 -420 Descending Kansas City Center
06:39PM 37.6036 -97.3306 213° Southwest 236 272 2,900 -300 Descending Kansas City Center
06:39PM 37.5961 -97.3389 221° Southwest 250 288 2,900 180 Level Kansas City Center
06:40PM 37.5608 -97.3872 227° Southwest 212 244 3,100 180 Climbing Kansas City Center
06:40PM 37.5600 -97.3964 263° West 226 260 3,100 -540 Level Kansas City Center
06:41PM 37.5756 -97.4511 290° West 181 208 2,600 -540 Descending Kansas City Center
06:41PM 37.5789 -97.4567 307° West 201 231 2,600 -720 Level Kansas City Center
06:42PM 37.6100 -97.4589 357° North 124 143 1,900 -840 Descending Kansas City Center
06:42PM 37.6139 -97.4556 34° Northeast 164 189 1,800 -360 Descending Kansas City Center
06:43PM 37.6572 -97.4378 18° North 155 178 1,500 -300 Descending Kansas City Center